createdAt,value
2023-01-21T00:01:04.929Z,92.34
2023-01-21T00:03:32.028Z,91.76
2023-01-21T00:05:59.195Z,91.13
2023-01-21T00:08:26.659Z,91.31
2023-01-21T00:10:54.272Z,91.48
2023-01-21T00:13:21.638Z,90.71
2023-01-21T00:15:48.833Z,90.98
2023-01-21T00:18:15.994Z,91.14
2023-01-21T00:20:45.046Z,90.56
2023-01-21T00:23:12.405Z,90.83
2023-01-21T00:25:39.491Z,90.68
2023-01-21T00:28:06.813Z,90.43
2023-01-21T00:30:35.013Z,90.29
2023-01-21T00:33:03.905Z,90.00
2023-01-21T00:35:31.058Z,90.54
2023-01-21T00:37:58.163Z,90.67
2023-01-21T00:40:25.744Z,90.41
2023-01-21T00:42:52.917Z,90.34
2023-01-21T00:45:20.109Z,90.23
2023-01-21T00:47:47.261Z,90.10
2023-01-21T00:50:14.544Z,89.45
2023-01-21T00:52:41.709Z,89.38
2023-01-21T00:55:09.126Z,90.10
2023-01-21T00:57:36.739Z,90.52
2023-01-21T01:00:05.259Z,90.60
2023-01-21T01:02:32.416Z,89.92
2023-01-21T01:04:59.589Z,89.79
2023-01-21T01:07:26.745Z,90.50
2023-01-21T01:09:53.762Z,90.79
2023-01-21T01:12:20.856Z,90.67
2023-01-21T01:14:47.985Z,91.21
2023-01-21T01:17:15.056Z,91.34
2023-01-21T01:19:42.145Z,91.05
2023-01-21T01:22:09.187Z,90.52
2023-01-21T01:24:36.193Z,91.23
2023-01-21T01:27:03.836Z,91.14
2023-01-21T01:29:31.104Z,90.93
2023-01-21T01:31:58.120Z,91.24
2023-01-21T01:34:25.153Z,91.66
2023-01-21T01:36:52.147Z,91.55
2023-01-21T01:39:19.201Z,91.53
2023-01-21T01:41:46.366Z,91.05
2023-01-21T01:44:58.689Z,90.89
2023-01-21T01:47:32.823Z,91.44
2023-01-21T01:50:01.483Z,91.57
2023-01-21T01:52:29.344Z,91.31
2023-01-21T01:55:00.687Z,91.13
2023-01-21T01:57:35.469Z,91.34
2023-01-21T02:00:07.500Z,91.26
2023-01-21T02:02:40.485Z,90.89
2023-01-21T02:05:10.607Z,91.33
2023-01-21T02:07:43.941Z,91.57
2023-01-21T02:10:14.395Z,91.21
2023-01-21T02:12:43.721Z,90.90
2023-01-21T02:15:11.645Z,90.90
2023-01-21T02:18:03.249Z,91.33
2023-01-21T02:21:10.483Z,91.69
2023-01-21T02:23:54.560Z,91.51
2023-01-21T02:26:54.871Z,91.34
2023-01-21T02:29:50.502Z,91.02
2023-01-21T02:33:14.808Z,90.84
2023-01-21T02:36:03.946Z,90.74
2023-01-21T02:38:41.069Z,90.61
2023-01-21T02:41:23.498Z,90.38
2023-01-21T02:44:19.634Z,90.55
2023-01-21T02:47:17.481Z,90.57
2023-01-21T02:49:48.787Z,90.71
2023-01-21T02:52:21.323Z,91.03
2023-01-21T02:54:51.502Z,90.78
2023-01-21T02:57:48.547Z,90.80
2023-01-21T03:00:38.970Z,91.75
2023-01-21T03:03:31.427Z,91.38
2023-01-21T03:06:29.753Z,91.05
2023-01-21T03:09:13.955Z,91.36
2023-01-21T03:11:45.319Z,91.01
2023-01-21T03:14:36.743Z,90.71
2023-01-21T03:17:16.694Z,90.37
2023-01-21T03:19:57.476Z,90.19
2023-01-21T03:22:29.391Z,90.28
2023-01-21T03:24:58.619Z,90.22
2023-01-21T03:27:30.072Z,89.87
2023-01-21T03:30:09.193Z,89.80
2023-01-21T03:32:38.209Z,89.64
2023-01-21T03:35:07.064Z,89.66
2023-01-21T03:37:44.772Z,89.50
2023-01-21T03:40:28.126Z,89.56
2023-01-21T03:42:55.796Z,89.56
2023-01-21T03:46:09.612Z,89.39
2023-01-21T03:48:53.232Z,89.74
2023-01-21T03:51:38.780Z,89.14
2023-01-21T03:54:05.985Z,88.95
2023-01-21T03:56:33.102Z,88.29
2023-01-21T03:59:00.202Z,88.13
2023-01-21T04:01:27.547Z,88.16
2023-01-21T04:03:54.809Z,88.50
2023-01-21T04:06:23.203Z,88.00
2023-01-21T04:08:50.531Z,87.56
2023-01-21T04:11:19.464Z,87.05
2023-01-21T04:13:49.387Z,85.76
2023-01-21T04:16:17.390Z,85.45
2023-01-21T04:18:44.884Z,85.13
2023-01-21T04:21:12.157Z,84.33
2023-01-21T04:23:39.373Z,82.21
2023-01-21T04:26:07.298Z,80.79
2023-01-21T04:28:34.677Z,80.97
2023-01-21T04:31:02.080Z,81.01
2023-01-21T04:33:30.156Z,79.36
2023-01-21T04:35:59.142Z,78.54
2023-01-21T04:38:26.861Z,78.33
2023-01-21T04:40:54.110Z,78.10
2023-01-21T04:43:21.313Z,77.87
2023-01-21T04:45:49.589Z,78.09
2023-01-21T04:48:17.123Z,78.65
2023-01-21T04:50:46.207Z,78.99
2023-01-21T04:53:13.600Z,79.19
2023-01-21T04:55:40.847Z,79.52
2023-01-21T04:58:08.204Z,80.14
2023-01-21T05:00:35.306Z,80.10
2023-01-21T05:03:02.532Z,80.11
2023-01-21T05:05:29.730Z,80.22
2023-01-21T05:07:56.893Z,80.22
2023-01-21T05:10:24.129Z,79.87
2023-01-21T05:12:51.270Z,79.28
2023-01-21T05:15:19.503Z,79.61
2023-01-21T05:17:46.819Z,79.72
2023-01-21T05:20:14.139Z,79.74
2023-01-21T05:22:41.505Z,79.96
2023-01-21T05:25:08.863Z,80.52
2023-01-21T05:27:36.343Z,80.80
2023-01-21T05:30:04.109Z,80.96
2023-01-21T05:32:31.374Z,81.08
2023-01-21T05:34:58.685Z,81.30
2023-01-21T05:37:25.878Z,80.93
2023-01-21T05:39:52.991Z,80.47
2023-01-21T05:42:20.054Z,81.18
2023-01-21T05:44:47.193Z,81.37
2023-01-21T05:47:14.562Z,81.17
2023-01-21T05:49:41.714Z,80.70
2023-01-21T05:52:08.800Z,80.80
2023-01-21T05:54:35.996Z,81.12
2023-01-21T05:57:03.262Z,81.22
2023-01-21T05:59:30.507Z,80.92
2023-01-21T06:01:57.641Z,81.16
2023-01-21T06:04:29.998Z,81.39
2023-01-21T06:06:57.538Z,81.38
2023-01-21T06:09:24.687Z,81.12
2023-01-21T06:11:51.749Z,81.39
2023-01-21T06:14:18.985Z,81.40
2023-01-21T06:16:46.054Z,81.57
2023-01-21T06:19:13.154Z,81.61
2023-01-21T06:21:40.296Z,81.42
2023-01-21T06:24:07.584Z,81.37
2023-01-21T06:26:34.762Z,81.21
2023-01-21T06:29:02.068Z,81.60
2023-01-21T06:31:29.198Z,81.32
2023-01-21T06:33:56.522Z,80.36
2023-01-21T06:36:23.609Z,80.14
2023-01-21T06:38:50.648Z,80.90
2023-01-21T06:41:18.019Z,80.48
2023-01-21T06:43:45.129Z,78.84
2023-01-21T06:46:12.347Z,78.89
2023-01-21T06:48:39.604Z,78.83
2023-01-21T06:51:06.853Z,79.27
2023-01-21T06:53:33.944Z,79.24
2023-01-21T06:56:01.116Z,79.51
2023-01-21T06:58:28.279Z,79.95
2023-01-21T07:00:56.813Z,79.31
2023-01-21T07:03:23.896Z,79.42
2023-01-21T07:05:51.112Z,80.11
2023-01-21T07:08:18.625Z,79.79
2023-01-21T07:10:47.769Z,79.75
2023-01-21T07:13:15.069Z,79.62
2023-01-21T07:15:42.275Z,79.25
2023-01-21T07:18:09.545Z,79.06
2023-01-21T07:20:40.693Z,78.93
2023-01-21T07:23:08.560Z,78.89
2023-01-21T07:25:36.883Z,79.17
2023-01-21T07:28:04.166Z,79.13
2023-01-21T07:30:31.315Z,78.76
2023-01-21T07:32:58.451Z,77.81
2023-01-21T07:35:25.623Z,77.43
2023-01-21T07:37:52.765Z,78.20
2023-01-21T07:40:19.873Z,77.62
2023-01-21T07:42:54.777Z,76.83
2023-01-21T07:45:23.505Z,76.06
2023-01-21T07:47:50.780Z,75.73
2023-01-21T07:50:18.121Z,75.38
2023-01-21T07:52:45.304Z,75.14
2023-01-21T07:55:12.854Z,74.24
2023-01-21T07:57:40.175Z,73.16
2023-01-21T08:00:08.321Z,73.50
2023-01-21T08:02:41.333Z,72.81
2023-01-21T08:05:09.523Z,70.75
2023-01-21T08:07:36.694Z,70.93
2023-01-21T08:10:04.338Z,69.90
2023-01-21T08:12:31.617Z,69.65
2023-01-21T08:14:58.760Z,69.17
2023-01-21T08:17:26.582Z,69.23
2023-01-21T08:19:53.727Z,67.60
2023-01-21T08:22:20.936Z,67.80
2023-01-21T08:24:48.125Z,67.67
2023-01-21T08:27:15.256Z,67.22
2023-01-21T08:29:42.387Z,66.95
2023-01-21T08:32:09.463Z,66.83
2023-01-21T08:34:36.760Z,66.46
2023-01-21T08:37:03.856Z,66.27
2023-01-21T08:39:31.160Z,66.38
2023-01-21T08:41:58.807Z,66.35
2023-01-21T08:44:25.984Z,65.80
2023-01-21T08:46:53.338Z,65.12
2023-01-21T08:49:22.094Z,64.43
2023-01-21T08:51:49.606Z,65.06
2023-01-21T08:54:16.708Z,65.07
2023-01-21T08:56:43.803Z,65.74
2023-01-21T08:59:10.916Z,65.77
2023-01-21T09:01:40.440Z,64.70
2023-01-21T09:04:08.752Z,64.92
2023-01-21T09:06:35.840Z,64.96
2023-01-21T09:09:03.144Z,64.12
2023-01-21T09:11:30.321Z,64.30
2023-01-21T09:14:02.700Z,64.83
2023-01-21T09:16:33.693Z,64.33
2023-01-21T09:19:01.898Z,63.72
2023-01-21T09:21:29.077Z,63.21
2023-01-21T09:23:56.722Z,63.07
2023-01-21T09:26:24.235Z,62.72
2023-01-21T09:28:57.766Z,62.91
2023-01-21T09:31:27.560Z,62.15
2023-01-21T09:33:58.870Z,61.20
2023-01-21T09:36:29.561Z,60.92
2023-01-21T09:38:57.921Z,61.42
2023-01-21T09:41:45.575Z,60.54
2023-01-21T09:44:32.496Z,61.32
2023-01-21T09:47:37.601Z,60.07
2023-01-21T09:50:25.793Z,60.22
2023-01-21T09:53:04.206Z,59.38
2023-01-21T09:55:49.170Z,59.10
2023-01-21T09:58:49.434Z,58.93
2023-01-21T10:01:43.069Z,57.27
2023-01-21T10:05:07.167Z,57.30
2023-01-21T10:07:41.777Z,55.49
2023-01-21T10:10:29.537Z,56.19
2023-01-21T10:13:19.627Z,55.47
2023-01-21T10:16:02.071Z,54.05
2023-01-21T10:18:34.326Z,54.28
2023-01-21T10:21:10.628Z,54.61
2023-01-21T10:23:47.539Z,55.40
2023-01-21T10:26:16.725Z,55.49
2023-01-21T10:28:51.261Z,55.85
2023-01-21T10:31:33.599Z,56.15
2023-01-21T10:34:16.624Z,56.25
2023-01-21T10:37:31.071Z,56.47
2023-01-21T10:40:03.213Z,58.73
2023-01-21T10:42:40.189Z,57.05
2023-01-21T10:45:10.147Z,57.49
2023-01-21T10:48:21.471Z,56.56
2023-01-21T10:51:23.577Z,56.87
2023-01-21T10:54:12.702Z,56.07
2023-01-21T10:56:43.744Z,54.84
2023-01-21T10:59:22.484Z,54.78
2023-01-21T11:02:03.611Z,55.64
2023-01-21T11:04:30.919Z,53.89
2023-01-21T11:07:04.639Z,52.33
2023-01-21T11:09:39.864Z,52.46
2023-01-21T11:12:11.857Z,52.83
2023-01-21T11:14:39.092Z,52.33
2023-01-21T11:17:06.504Z,52.57
2023-01-21T11:19:33.900Z,51.76
2023-01-21T11:22:19.616Z,51.53
2023-01-21T11:24:50.978Z,49.84
2023-01-21T11:27:33.327Z,49.69
2023-01-21T11:30:00.952Z,49.78
2023-01-21T11:32:31.048Z,49.06
2023-01-21T11:35:09.646Z,48.81
2023-01-21T11:37:38.034Z,47.87
2023-01-21T11:40:22.209Z,46.38
2023-01-21T11:42:52.292Z,45.87
2023-01-21T11:45:36.530Z,45.06
2023-01-21T11:48:34.720Z,45.00
2023-01-21T11:51:08.412Z,44.51
2023-01-21T11:53:35.524Z,44.10
2023-01-21T11:56:04.336Z,42.69
2023-01-21T11:58:34.414Z,42.35
2023-01-21T12:01:07.450Z,42.21
2023-01-21T12:03:45.329Z,42.68
2023-01-21T12:06:25.763Z,43.15
2023-01-21T12:09:00.300Z,43.08
2023-01-21T12:11:30.659Z,40.70
2023-01-21T12:14:29.266Z,41.86
2023-01-21T12:17:27.021Z,42.56
2023-01-21T12:20:10.962Z,42.38
2023-01-21T12:22:59.013Z,41.33
2023-01-21T12:25:43.879Z,40.39
2023-01-21T12:28:55.254Z,40.60
2023-01-21T12:31:42.174Z,40.02
2023-01-21T12:34:24.165Z,39.55
2023-01-21T12:37:18.777Z,38.50
2023-01-21T12:39:48.415Z,38.99
2023-01-21T12:42:33.480Z,39.13
2023-01-21T12:45:06.327Z,38.73
2023-01-21T12:48:34.199Z,38.93
2023-01-21T12:51:19.826Z,41.47
2023-01-21T12:53:56.337Z,42.43
2023-01-21T12:56:45.428Z,41.88
2023-01-21T12:59:24.731Z,41.25
2023-01-21T13:02:06.342Z,40.79
2023-01-21T13:04:39.159Z,41.38
2023-01-21T13:07:33.715Z,41.74
2023-01-21T13:10:19.200Z,41.72
2023-01-21T13:12:55.452Z,41.84
2023-01-21T13:15:30.451Z,41.73
2023-01-21T13:18:04.227Z,41.20
2023-01-21T13:20:38.213Z,41.27
2023-01-21T13:23:16.723Z,40.64
2023-01-21T13:26:02.715Z,40.24
2023-01-21T13:28:45.424Z,40.47
2023-01-21T13:31:44.244Z,39.65
2023-01-21T13:34:39.470Z,39.36
2023-01-21T13:38:03.371Z,39.44
2023-01-21T13:40:49.865Z,39.54
2023-01-21T13:43:41.075Z,39.86
2023-01-21T13:46:49.622Z,41.11
2023-01-21T13:50:04.570Z,43.00
2023-01-21T13:53:01.153Z,43.20
2023-01-21T13:56:17.196Z,43.48
2023-01-21T13:58:50.354Z,43.42
2023-01-21T14:02:00.553Z,43.39
2023-01-21T14:04:39.179Z,43.91
2023-01-21T14:07:23.944Z,44.67
2023-01-21T14:10:18.895Z,44.79
2023-01-21T14:13:21.217Z,45.73
2023-01-21T14:16:20.348Z,46.80
2023-01-21T14:19:48.336Z,48.26
2023-01-21T14:22:49.660Z,50.26
2023-01-21T14:25:45.179Z,52.31
2023-01-21T14:28:24.073Z,53.42
2023-01-21T14:31:01.899Z,54.49
2023-01-21T14:34:11.288Z,57.27
2023-01-21T14:36:42.851Z,57.37
2023-01-21T14:39:18.487Z,58.73
2023-01-21T14:42:06.572Z,60.35
2023-01-21T14:44:43.933Z,62.44
2023-01-21T14:47:22.393Z,65.09
2023-01-21T14:49:54.110Z,64.31
2023-01-21T14:52:43.590Z,63.76
2023-01-21T14:55:33.014Z,63.40
2023-01-21T14:58:01.167Z,64.69
2023-01-21T15:00:34.728Z,66.21
2023-01-21T15:03:01.761Z,65.62
2023-01-21T15:05:35.974Z,66.09
2023-01-21T15:08:23.495Z,66.82
2023-01-21T15:11:02.871Z,70.67
2023-01-21T15:13:32.905Z,69.18
2023-01-21T15:16:31.713Z,70.77
2023-01-21T15:19:07.827Z,69.07
2023-01-21T15:21:40.564Z,69.96
2023-01-21T15:24:16.195Z,70.31
2023-01-21T15:27:16.226Z,72.01
2023-01-21T15:29:53.362Z,75.70
2023-01-21T15:32:32.563Z,76.67
2023-01-21T15:35:34.055Z,76.05
2023-01-21T15:38:19.966Z,76.96
2023-01-21T15:41:01.044Z,77.36
2023-01-21T15:43:55.977Z,75.96
2023-01-21T15:46:38.009Z,74.26
2023-01-21T15:49:30.158Z,75.70
2023-01-21T15:52:20.432Z,76.83
2023-01-21T15:55:15.682Z,76.81
2023-01-21T15:57:53.552Z,73.25
2023-01-21T16:00:34.545Z,73.49
2023-01-21T16:03:26.673Z,72.12
2023-01-21T16:06:27.215Z,72.98
2023-01-21T16:09:18.725Z,74.29
2023-01-21T16:12:22.801Z,74.36
2023-01-21T16:15:14.608Z,76.61
2023-01-21T16:18:10.695Z,76.00
2023-01-21T16:20:44.738Z,74.46
2023-01-21T16:23:15.257Z,76.39
2023-01-21T16:25:48.255Z,76.48
2023-01-21T16:28:16.024Z,74.98
2023-01-21T16:30:58.894Z,75.47
2023-01-21T16:33:26.175Z,75.01
2023-01-21T16:35:56.789Z,75.33
2023-01-21T16:38:30.045Z,75.03
2023-01-21T16:41:06.198Z,76.40
2023-01-21T16:43:50.138Z,75.49
2023-01-21T16:46:25.434Z,74.49
2023-01-21T16:48:58.637Z,75.99
2023-01-21T16:51:33.282Z,75.35
2023-01-21T16:54:18.970Z,76.22
2023-01-21T16:56:49.675Z,76.12
2023-01-21T16:59:25.168Z,74.48
2023-01-21T17:01:53.435Z,75.89
2023-01-21T17:04:20.943Z,77.81
2023-01-21T17:06:48.391Z,76.85
2023-01-21T17:09:33.839Z,75.80
2023-01-21T17:12:16.578Z,76.37
2023-01-21T17:14:43.746Z,78.83
2023-01-21T17:17:22.455Z,80.95
2023-01-21T17:19:50.618Z,81.70
2023-01-21T17:22:22.222Z,81.82
2023-01-21T17:25:18.624Z,78.98
2023-01-21T17:27:45.956Z,79.52
2023-01-21T17:30:29.020Z,80.62
2023-01-21T17:33:05.220Z,81.36
2023-01-21T17:35:33.031Z,79.40
2023-01-21T17:38:10.305Z,79.40
2023-01-21T17:40:41.346Z,78.11
2023-01-21T17:43:20.032Z,79.33
2023-01-21T17:45:49.647Z,80.01
2023-01-21T17:48:31.267Z,81.33
2023-01-21T17:51:13.596Z,82.26
2023-01-21T17:53:49.084Z,83.14
2023-01-21T17:56:34.680Z,82.19
2023-01-21T17:59:05.002Z,81.89
2023-01-21T18:01:32.246Z,82.10
2023-01-21T18:03:59.343Z,82.52
2023-01-21T18:06:28.540Z,82.37
2023-01-21T18:08:59.534Z,81.16
2023-01-21T18:11:26.739Z,80.40
2023-01-21T18:13:53.902Z,80.51
2023-01-21T18:16:21.214Z,80.95
2023-01-21T18:18:49.860Z,81.76
2023-01-21T18:21:20.343Z,82.01
2023-01-21T18:23:48.921Z,82.22
2023-01-21T18:26:29.561Z,83.54
2023-01-21T18:28:56.816Z,83.38
2023-01-21T18:31:24.424Z,82.94
2023-01-21T18:33:51.667Z,83.62
2023-01-21T18:36:18.948Z,84.72
2023-01-21T18:38:46.041Z,84.13
2023-01-21T18:41:13.131Z,83.23
2023-01-21T18:43:41.337Z,82.38
2023-01-21T18:46:13.664Z,80.97
2023-01-21T18:48:42.211Z,81.19
2023-01-21T18:51:10.359Z,81.05
2023-01-21T18:53:37.653Z,81.79
2023-01-21T18:56:05.759Z,81.75
2023-01-21T18:58:32.888Z,81.95
2023-01-21T19:01:02.611Z,82.05
2023-01-21T19:03:33.140Z,83.83
2023-01-21T19:06:00.279Z,84.88
2023-01-21T19:08:28.841Z,83.87
2023-01-21T19:10:55.961Z,83.22
2023-01-21T19:13:23.161Z,82.72
2023-01-21T19:15:50.596Z,82.07
2023-01-21T19:18:17.673Z,83.57
2023-01-21T19:20:44.866Z,85.69
2023-01-21T19:23:17.765Z,85.85
2023-01-21T19:25:57.083Z,86.38
2023-01-21T19:28:24.797Z,86.22
2023-01-21T19:30:54.773Z,88.17
2023-01-21T19:33:23.477Z,88.28
2023-01-21T19:36:02.607Z,86.95
2023-01-21T19:38:30.015Z,86.39
2023-01-21T19:40:57.232Z,86.45
2023-01-21T19:43:24.421Z,85.85
2023-01-21T19:45:52.238Z,85.63
2023-01-21T19:48:21.522Z,84.94
2023-01-21T19:50:48.870Z,85.63
2023-01-21T19:53:20.418Z,85.22
2023-01-21T19:55:49.170Z,85.05
2023-01-21T19:58:25.945Z,84.57
2023-01-21T20:00:53.910Z,84.78
2023-01-21T20:03:25.580Z,85.31
2023-01-21T20:05:58.753Z,85.97
2023-01-21T20:08:28.718Z,85.72
2023-01-21T20:10:55.988Z,84.97
2023-01-21T20:13:23.250Z,83.99
2023-01-21T20:15:51.979Z,84.27
2023-01-21T20:18:23.961Z,84.66
2023-01-21T20:20:52.674Z,84.55
2023-01-21T20:23:22.260Z,84.77
2023-01-21T20:25:58.319Z,86.55
2023-01-21T20:28:33.361Z,91.71
2023-01-21T20:31:05.766Z,92.53
2023-01-21T20:33:35.606Z,91.61
2023-01-21T20:36:09.960Z,89.93
2023-01-21T20:38:37.403Z,90.35
2023-01-21T20:41:05.798Z,89.76
2023-01-21T20:43:34.137Z,88.87
2023-01-21T20:46:04.322Z,86.67
2023-01-21T20:48:35.416Z,85.00
2023-01-21T20:51:03.549Z,84.86
2023-01-21T20:53:30.790Z,86.58
2023-01-21T20:56:00.279Z,89.04
2023-01-21T20:58:27.669Z,88.60
2023-01-21T21:00:54.886Z,87.42
2023-01-21T21:03:22.158Z,86.55
2023-01-21T21:05:49.306Z,86.22
2023-01-21T21:08:19.968Z,86.05
2023-01-21T21:10:50.134Z,85.65
2023-01-21T21:13:17.360Z,85.97
2023-01-21T21:15:46.532Z,86.44
2023-01-21T21:18:14.488Z,86.31
2023-01-21T21:20:42.156Z,86.53
2023-01-21T21:23:14.267Z,86.67
2023-01-21T21:25:46.774Z,86.92
2023-01-21T21:28:16.818Z,87.30
2023-01-21T21:30:44.427Z,88.05
2023-01-21T21:33:21.990Z,87.13
2023-01-21T21:35:49.304Z,87.63
2023-01-21T21:38:22.863Z,87.86
2023-01-21T21:40:53.170Z,87.89
2023-01-21T21:43:34.913Z,91.13
2023-01-21T21:46:27.915Z,91.38
2023-01-21T21:48:55.198Z,90.98
2023-01-21T21:51:22.845Z,90.68
2023-01-21T21:53:50.630Z,90.78
2023-01-21T21:56:23.203Z,92.18
2023-01-21T21:58:51.205Z,92.27
2023-01-21T22:01:30.413Z,91.33
2023-01-21T22:03:59.515Z,91.92
2023-01-21T22:06:27.374Z,91.88
2023-01-21T22:08:56.822Z,90.99
2023-01-21T22:11:25.585Z,90.63
2023-01-21T22:13:55.681Z,90.14
2023-01-21T22:16:27.842Z,90.54
2023-01-21T22:18:57.236Z,88.84
2023-01-21T22:21:27.952Z,87.59
2023-01-21T22:23:55.261Z,87.41
2023-01-21T22:26:25.321Z,87.92
2023-01-21T22:28:53.367Z,89.17
2023-01-21T22:31:24.701Z,90.95
2023-01-21T22:33:52.335Z,90.99
2023-01-21T22:36:22.578Z,89.82
2023-01-21T22:38:50.355Z,88.89
2023-01-21T22:41:20.602Z,88.91
2023-01-21T22:43:49.361Z,89.80
2023-01-21T22:46:29.472Z,90.07
2023-01-21T22:48:57.076Z,90.62
2023-01-21T22:51:24.808Z,90.05
2023-01-21T22:53:52.975Z,89.07
2023-01-21T22:56:28.177Z,89.39
2023-01-21T22:59:02.804Z,89.21
2023-01-21T23:01:30.844Z,88.39
2023-01-21T23:03:59.339Z,88.32
2023-01-21T23:06:27.255Z,88.22
2023-01-21T23:08:55.243Z,88.27
2023-01-21T23:11:22.533Z,87.81
2023-01-21T23:13:49.810Z,88.67
2023-01-21T23:16:20.380Z,89.21
2023-01-21T23:18:48.419Z,88.79
2023-01-21T23:21:19.378Z,88.61
2023-01-21T23:23:46.822Z,87.86
2023-01-21T23:26:14.717Z,87.46
2023-01-21T23:28:42.701Z,87.91
2023-01-21T23:31:18.065Z,87.41
2023-01-21T23:33:52.862Z,87.00
2023-01-21T23:36:20.512Z,87.43
2023-01-21T23:38:48.009Z,87.42
2023-01-21T23:41:20.458Z,87.33
2023-01-21T23:43:47.524Z,87.31
2023-01-21T23:46:18.910Z,87.40
2023-01-21T23:48:46.947Z,87.61
2023-01-21T23:51:15.698Z,87.95
2023-01-21T23:53:42.784Z,87.93
2023-01-21T23:56:16.402Z,88.08
2023-01-21T23:58:43.666Z,87.96
